Astatula, Florida
Current Conditions -  °F | °C
As of 5:53 PM on Wednesday 17 Dec 2014 (Local Time) from KLEE Reporting Station
Clear Clear  
Wind Chill: 62°   Ceiling: Unl
Heat Index: 62°   Visibility: 10mi
Dew Point: 51°   Wind: 5mph
Humidity: 67%   Direction: 280°W
Pressure: 30.12"   Gusts: NA
Location:  28.71°N, 81.73°W
Report Text: KLEE 172253Z 28004KT 10SM CLR 17/11 A3012 RMK AO2 SLP198 T01670106
Loading
Personal Weather Stations






























Interactive Weather Map New forecast layout! Learn more

10-Day Weather Forecast

Advertisements
Track Severe Weather on mobile